Time;durP1;ratioP1;P1;durP2;ratioP2;P2;SDS_P1;SDS_P2;PMS_P1;PMS_P2;Temp;Humidity;BMP_temperature;BMP_pressure;BME280_temperature;BME280_humidity;BME280_pressure;Samples;Min_cycle;Max_cycle;Signal;HPM_P1;HPM_P2
2022/05/13 00:01:28;;;;;;;7.57;1.92;;;11.80;99.90;;;;;;5023079;28;20045;-75
2022/05/13 00:03:54;;;;;;;8.13;2.05;;;11.90;99.90;;;;;;5055629;28;20099;-74
2022/05/13 00:06:21;;;;;;;6.60;1.80;;;11.80;99.90;;;;;;5015806;28;20041;-74
2022/05/13 00:08:46;;;;;;;7.43;2.28;;;11.80;99.90;;;;;;5021344;28;20041;-74
2022/05/13 00:11:12;;;;;;;8.45;2.00;;;11.80;99.90;;;;;;5024063;28;20053;-74
2022/05/13 00:13:38;;;;;;;7.88;2.35;;;11.80;99.90;;;;;;5018808;28;20034;-74
2022/05/13 00:16:05;;;;;;;9.93;2.20;;;11.90;99.90;;;;;;5027644;28;20136;-74
2022/05/13 00:18:31;;;;;;;5.72;1.98;;;11.90;99.90;;;;;;5027999;28;20033;-74
2022/05/13 00:20:58;;;;;;;6.05;1.73;;;11.90;99.90;;;;;;5026093;28;20326;-74
2022/05/13 00:23:25;;;;;;;3.90;1.60;;;11.90;99.90;;;;;;5014952;28;20052;-74
2022/05/13 00:25:52;;;;;;;6.15;2.35;;;11.90;99.90;;;;;;5018296;28;20507;-73
2022/05/13 00:28:17;;;;;;;7.47;1.85;;;11.90;99.90;;;;;;5025587;28;20060;-75
2022/05/13 00:30:48;;;;;;;7.47;1.90;;;11.90;99.90;;;;;;5024215;28;20408;-75
2022/05/13 00:33:18;;;;;;;7.22;1.85;;;11.90;99.90;;;;;;5026526;28;20041;-73
2022/05/13 00:35:45;;;;;;;6.32;1.75;;;11.90;99.90;;;;;;5024509;28;20037;-75
2022/05/13 00:38:14;;;;;;;6.78;2.40;;;11.90;99.90;;;;;;5024931;28;20045;-74
2022/05/13 00:40:41;;;;;;;7.15;2.08;;;12.00;99.90;;;;;;5027570;28;20145;-75
2022/05/13 00:43:09;;;;;;;7.43;2.45;;;12.00;99.90;;;;;;5053702;28;20045;-74
2022/05/13 00:45:36;;;;;;;9.02;1.85;;;12.00;99.90;;;;;;5025652;28;20068;-74
2022/05/13 00:48:05;;;;;;;6.97;2.60;;;12.00;99.90;;;;;;5029451;28;20049;-74
2022/05/13 00:50:34;;;;;;;6.03;2.28;;;12.00;99.90;;;;;;5021818;28;20060;-74
2022/05/13 00:53:00;;;;;;;9.30;2.55;;;12.00;99.90;;;;;;5020949;28;20045;-74
2022/05/13 00:55:33;;;;;;;7.25;2.00;;;12.00;99.90;;;;;;5024482;28;20048;-74
2022/05/13 00:58:00;;;;;;;10.18;2.60;;;12.00;99.90;;;;;;5023868;28;20042;-74
2022/05/13 01:00:26;;;;;;;5.53;2.08;;;12.00;99.90;;;;;;5020763;28;20370;-74
2022/05/13 01:02:52;;;;;;;4.30;2.00;;;12.00;99.90;;;;;;5033808;28;20052;-74
2022/05/13 01:05:19;;;;;;;5.30;1.92;;;12.10;99.90;;;;;;5030248;28;20052;-74
2022/05/13 01:07:45;;;;;;;6.97;1.98;;;12.10;99.90;;;;;;5020541;28;20040;-74
2022/05/13 01:10:17;;;;;;;7.47;2.25;;;12.10;99.90;;;;;;5028643;28;20041;-74
2022/05/13 01:12:50;;;;;;;12.05;2.33;;;12.10;99.90;;;;;;5032882;28;20056;-74
2022/05/13 01:15:23;;;;;;;9.07;2.33;;;12.10;99.90;;;;;;5033390;28;20053;-74
2022/05/13 01:18:06;;;;;;;9.10;2.30;;;12.10;99.90;;;;;;5026289;28;20053;-75
2022/05/13 01:20:42;;;;;;;9.27;2.55;;;12.20;99.90;;;;;;5056261;28;20050;-74
2022/05/13 01:23:15;;;;;;;14.60;3.22;;;12.20;99.90;;;;;;5015677;28;20038;-74
2022/05/13 01:25:44;;;;;;;6.03;2.67;;;12.20;99.90;;;;;;5020606;28;20046;-73
2022/05/13 01:28:17;;;;;;;9.20;2.33;;;12.20;99.90;;;;;;5028367;28;20042;-74
2022/05/13 01:30:50;;;;;;;8.07;2.28;;;12.20;99.90;;;;;;5030211;28;20050;-75
2022/05/13 01:33:16;;;;;;;9.50;2.10;;;12.20;99.90;;;;;;5016767;28;20053;-74
2022/05/13 01:35:44;;;;;;;7.07;2.55;;;12.20;99.90;;;;;;5030786;28;20057;-74
2022/05/13 01:38:11;;;;;;;6.63;2.00;;;12.20;99.90;;;;;;5025227;28;20057;-73
2022/05/13 01:40:37;;;;;;;13.02;2.60;;;12.20;99.90;;;;;;5022470;28;20053;-74
2022/05/13 01:43:03;;;;;;;10.88;2.42;;;12.30;99.90;;;;;;5031361;28;20048;-74
2022/05/13 01:45:30;;;;;;;7.10;2.15;;;12.30;99.90;;;;;;5014872;28;20448;-74
2022/05/13 01:47:56;;;;;;;7.75;2.70;;;12.30;99.90;;;;;;5030631;28;20136;-74
2022/05/13 01:50:23;;;;;;;6.53;2.42;;;12.30;99.90;;;;;;5015036;28;20499;-73
2022/05/13 01:52:49;;;;;;;10.05;3.85;;;12.30;99.90;;;;;;5030031;28;20034;-73
2022/05/13 01:55:16;;;;;;;12.85;3.03;;;12.30;99.90;;;;;;5038644;28;20045;-73
2022/05/13 01:57:42;;;;;;;9.13;2.30;;;12.30;99.90;;;;;;5032080;28;20048;-75
2022/05/13 02:00:09;;;;;;;8.70;2.38;;;12.20;99.90;;;;;;5027660;28;20743;-73
2022/05/13 02:03:44;;;;;;;8.85;2.35;;;12.30;99.90;;;;;;5033470;28;20029;-74
2022/05/13 02:05:20;;;;;;;7.70;3.10;;;12.30;99.90;;;;;;5017484;28;20129;-73
2022/05/13 02:07:49;;;;;;;8.00;2.60;;;12.20;99.90;;;;;;5027521;28;20060;-73
2022/05/13 02:10:15;;;;;;;6.32;2.65;;;12.30;99.90;;;;;;5022114;28;20478;-74
2022/05/13 02:12:40;;;;;;;8.75;2.47;;;12.20;99.90;;;;;;5031006;28;20042;-74
2022/05/13 02:15:07;;;;;;;8.23;2.30;;;12.30;99.90;;;;;;5029421;28;20056;-73
2022/05/13 02:17:32;;;;;;;8.90;2.78;;;12.20;99.90;;;;;;5032662;28;20073;-74
2022/05/13 02:19:58;;;;;;;8.07;2.85;;;12.20;99.90;;;;;;5028471;28;20092;-74
2022/05/13 02:22:24;;;;;;;9.90;2.90;;;12.20;99.90;;;;;;5031300;28;20041;-74
2022/05/13 02:24:50;;;;;;;9.05;2.42;;;12.20;99.90;;;;;;5027040;28;20064;-74
2022/05/13 02:27:17;;;;;;;9.57;2.45;;;12.40;99.90;;;;;;5015695;28;20050;-75
2022/05/13 02:29:42;;;;;;;9.90;2.75;;;12.20;99.90;;;;;;5030780;28;20396;-73
2022/05/13 02:32:08;;;;;;;9.65;2.33;;;12.20;99.90;;;;;;5013912;28;20045;-75
2022/05/13 02:34:36;;;;;;;10.05;2.75;;;12.20;99.90;;;;;;5028011;28;20057;-74
2022/05/13 02:37:03;;;;;;;9.10;2.53;;;12.20;99.90;;;;;;5022707;28;20137;-73
2022/05/13 02:39:32;;;;;;;10.38;2.40;;;12.20;99.90;;;;;;5031730;28;20049;-75
2022/05/13 02:41:57;;;;;;;11.02;2.97;;;12.20;99.90;;;;;;5031813;28;20100;-75
2022/05/13 02:44:23;;;;;;;11.43;3.08;;;12.20;99.90;;;;;;5031756;28;20397;-74
2022/05/13 02:46:49;;;;;;;10.23;2.72;;;12.20;99.90;;;;;;5027958;28;20464;-73
2022/05/13 02:49:15;;;;;;;9.25;2.80;;;12.20;99.90;;;;;;5025408;28;20040;-74
2022/05/13 02:51:44;;;;;;;10.13;2.75;;;12.20;99.90;;;;;;5025238;28;20473;-74
2022/05/13 02:54:10;;;;;;;8.35;2.58;;;12.10;99.90;;;;;;5024960;28;20096;-74
2022/05/13 02:56:39;;;;;;;12.65;2.80;;;12.10;99.90;;;;;;5029584;28;20049;-74
2022/05/13 02:59:05;;;;;;;12.05;2.67;;;12.10;99.90;;;;;;5044145;28;20067;-74
2022/05/13 03:01:32;;;;;;;9.13;2.35;;;12.10;99.90;;;;;;5029859;28;20124;-74
2022/05/13 03:03:58;;;;;;;8.73;2.75;;;12.00;99.90;;;;;;5028596;28;20535;-74
2022/05/13 03:06:25;;;;;;;8.00;2.25;;;12.00;99.90;;;;;;5029352;28;20060;-74
2022/05/13 03:08:54;;;;;;;10.48;2.70;;;12.00;99.90;;;;;;5030995;28;20163;-74
2022/05/13 03:11:23;;;;;;;9.25;2.78;;;12.00;99.90;;;;;;5023477;28;20053;-74
2022/05/13 03:13:52;;;;;;;7.63;2.92;;;11.90;99.90;;;;;;5029429;28;20083;-73
2022/05/13 03:16:21;;;;;;;13.35;3.78;;;11.90;99.90;;;;;;5030163;28;20693;-74
2022/05/13 03:18:58;;;;;;;9.23;3.30;;;11.90;99.90;;;;;;5029555;28;20057;-73
2022/05/13 03:21:25;;;;;;;7.22;3.22;;;11.80;99.90;;;;;;5026176;28;20134;-73
2022/05/13 03:23:52;;;;;;;12.65;3.38;;;11.80;99.90;;;;;;5013299;28;20064;-74
2022/05/13 03:26:20;;;;;;;15.73;3.78;;;11.80;99.90;;;;;;5027973;28;20492;-74
2022/05/13 03:28:46;;;;;;;12.98;3.85;;;11.80;99.90;;;;;;5021340;28;20049;-73
2022/05/13 03:31:12;;;;;;;10.82;3.28;;;11.80;99.90;;;;;;5012419;28;22191;-74
2022/05/13 03:33:38;;;;;;;11.10;3.78;;;11.70;99.90;;;;;;5009440;28;20116;-74
2022/05/13 03:36:06;;;;;;;10.23;3.50;;;11.80;99.90;;;;;;5010258;28;20054;-74
2022/05/13 03:38:32;;;;;;;13.55;3.97;;;11.80;99.90;;;;;;5025871;28;20042;-73
2022/05/13 03:40:58;;;;;;;17.48;3.78;;;11.80;99.90;;;;;;4991558;28;20091;-73
2022/05/13 03:43:24;;;;;;;11.13;3.42;;;11.80;99.90;;;;;;5008419;28;20191;-73
2022/05/13 03:45:49;;;;;;;8.80;3.53;;;11.80;99.90;;;;;;5026733;28;20116;-74
2022/05/13 03:48:15;;;;;;;16.92;3.65;;;11.80;99.90;;;;;;5026263;28;20041;-74
2022/05/13 03:50:45;;;;;;;8.23;3.17;;;11.80;99.90;;;;;;5010870;28;20045;-74
2022/05/13 03:53:11;;;;;;;11.23;3.70;;;11.90;99.90;;;;;;5009838;28;20080;-74
2022/05/13 03:55:41;;;;;;;12.30;3.67;;;11.90;99.90;;;;;;5028589;28;20083;-73
2022/05/13 03:58:07;;;;;;;13.90;4.22;;;11.90;99.90;;;;;;5013457;28;20485;-74
2022/05/13 04:00:33;;;;;;;9.52;3.40;;;11.90;99.90;;;;;;5013223;28;20052;-73
2022/05/13 04:03:00;;;;;;;14.77;4.20;;;11.90;99.90;;;;;;5025344;28;20046;-73
2022/05/13 04:10:54;;;;;;;16.30;8.15;;;11.90;99.90;;;;;;5045875;28;19921;-74
2022/05/13 04:16:10;;;;;;;18.23;9.38;;;12.00;99.90;;;;;;5030871;28;20057;-74
2022/05/13 04:18:42;;;;;;;20.10;8.68;;;12.00;99.90;;;;;;5012842;28;20057;-73
2022/05/13 04:21:12;;;;;;;20.15;11.40;;;11.90;99.90;;;;;;5012010;28;20251;-74
2022/05/13 04:23:42;;;;;;;21.10;10.85;;;12.00;99.90;;;;;;5039566;28;20065;-74
2022/05/13 04:26:13;;;;;;;16.33;7.60;;;12.00;99.90;;;;;;5026717;28;20041;-74
2022/05/13 04:28:47;;;;;;;20.83;7.47;;;12.00;99.90;;;;;;5009245;28;20133;-73
2022/05/13 04:31:14;;;;;;;16.33;7.00;;;12.00;99.90;;;;;;5029709;28;20045;-74
2022/05/13 04:33:41;;;;;;;16.42;5.93;;;12.00;99.90;;;;;;5011530;28;20088;-74
2022/05/13 04:36:10;;;;;;;10.82;5.22;;;12.00;99.90;;;;;;5059722;28;20060;-74
2022/05/13 04:38:36;;;;;;;18.45;6.20;;;12.00;99.90;;;;;;5027693;28;20041;-74
2022/05/13 04:43:49;;;;;;;21.77;8.57;;;12.00;99.90;;;;;;5025817;28;20095;-73
2022/05/13 04:46:14;;;;;;;14.55;6.22;;;12.00;99.90;;;;;;5022624;28;20050;-74
2022/05/13 04:48:40;;;;;;;17.50;6.10;;;12.00;99.90;;;;;;5028626;28;20037;-74
2022/05/13 04:51:06;;;;;;;10.30;3.75;;;12.00;99.90;;;;;;5023885;28;20439;-73
2022/05/13 04:53:35;;;;;;;13.27;4.47;;;12.00;99.90;;;;;;5023915;28;20519;-74
2022/05/13 04:56:03;;;;;;;13.32;3.70;;;12.00;99.90;;;;;;5024613;28;20053;-74
2022/05/13 04:58:29;;;;;;;14.60;4.25;;;12.00;99.90;;;;;;5022964;28;20076;-74
2022/05/13 05:00:56;;;;;;;14.52;5.07;;;12.00;99.90;;;;;;5009188;28;20084;-73
2022/05/13 05:03:24;;;;;;;15.55;4.72;;;12.00;99.90;;;;;;5023911;28;20100;-74
2022/05/13 05:05:50;;;;;;;12.90;3.97;;;12.10;99.90;;;;;;5026605;28;20449;-73
2022/05/13 05:08:19;;;;;;;13.57;3.75;;;12.10;99.90;;;;;;5024843;28;20084;-74
2022/05/13 05:10:46;;;;;;;12.35;3.63;;;12.10;99.90;;;;;;5026773;28;20081;-74
2022/05/13 05:13:23;;;;;;;11.60;3.10;;;12.10;99.90;;;;;;5028063;28;20064;-78
2022/05/13 05:15:50;;;;;;;12.07;3.67;;;12.10;99.90;;;;;;5024977;28;20030;-76
2022/05/13 05:18:15;;;;;;;15.45;3.63;;;12.10;99.90;;;;;;5023911;28;20045;-76
2022/05/13 05:20:43;;;;;;;11.95;3.53;;;12.10;99.90;;;;;;5026313;28;20037;-75
2022/05/13 05:23:13;;;;;;;13.43;3.10;;;12.20;99.90;;;;;;5021369;28;20044;-75
2022/05/13 05:25:39;;;;;;;17.13;4.22;;;12.30;99.90;;;;;;5027583;28;20511;-76
2022/05/13 05:28:04;;;;;;;19.02;3.63;;;12.30;99.90;;;;;;5041959;28;20057;-75
2022/05/13 05:30:31;;;;;;;16.33;3.33;;;12.30;99.90;;;;;;5025568;28;20132;-75
2022/05/13 05:33:01;;;;;;;15.30;3.35;;;12.40;99.90;;;;;;5027145;28;20103;-75
2022/05/13 05:35:28;;;;;;;10.73;3.45;;;12.40;99.90;;;;;;5021966;28;20045;-75
2022/05/13 05:37:54;;;;;;;16.45;3.88;;;12.40;99.90;;;;;;5021846;28;20053;-75
2022/05/13 05:40:20;;;;;;;15.35;4.65;;;12.40;99.90;;;;;;5022610;28;20057;-75
2022/05/13 05:42:48;;;;;;;14.65;4.40;;;12.50;99.90;;;;;;5020788;28;20070;-74
2022/05/13 05:45:15;;;;;;;10.73;3.67;;;12.50;99.90;;;;;;5050804;28;20053;-74
2022/05/13 05:47:41;;;;;;;12.05;3.42;;;12.60;99.90;;;;;;5019769;28;20048;-75
2022/05/13 05:50:10;;;;;;;13.20;3.10;;;12.60;99.90;;;;;;5025161;28;20037;-75
2022/05/13 05:52:36;;;;;;;17.08;3.75;;;12.70;99.90;;;;;;5023183;28;20100;-74
2022/05/13 05:57:58;;;;;;;17.02;3.42;;;12.90;99.90;;;;;;5030485;28;20045;-74
2022/05/13 06:00:24;;;;;;;10.10;3.05;;;13.00;99.90;;;;;;5032090;28;20049;-75
2022/05/13 06:02:50;;;;;;;13.60;3.15;;;13.10;99.90;;;;;;5048671;28;20571;-76
2022/05/13 06:05:18;;;;;;;10.75;3.00;;;13.10;99.90;;;;;;5030774;28;20053;-74
2022/05/13 06:07:45;;;;;;;12.57;3.60;;;13.20;99.90;;;;;;5032685;28;20041;-74
2022/05/13 06:10:12;;;;;;;13.35;3.00;;;13.30;99.90;;;;;;5028816;28;20481;-75
2022/05/13 06:12:38;;;;;;;16.55;3.47;;;13.30;99.90;;;;;;5028819;28;20043;-75
2022/05/13 06:15:05;;;;;;;14.15;3.13;;;13.40;99.90;;;;;;5025277;28;20049;-75
2022/05/13 06:17:31;;;;;;;12.60;3.17;;;13.40;99.90;;;;;;5025888;28;20045;-75
2022/05/13 06:20:04;;;;;;;10.18;2.80;;;13.50;99.90;;;;;;5025767;28;20056;-83
2022/05/13 06:22:29;;;;;;;12.27;2.90;;;13.60;99.90;;;;;;5027062;28;20053;-76
2022/05/13 06:24:58;;;;;;;15.05;3.17;;;13.60;99.90;;;;;;5024356;28;20461;-77
2022/05/13 06:27:24;;;;;;;16.98;2.90;;;13.60;99.90;;;;;;5028442;28;20125;-74
2022/05/13 06:29:51;;;;;;;15.15;2.55;;;13.70;99.90;;;;;;5027302;28;20060;-73
2022/05/13 06:32:17;;;;;;;13.10;2.88;;;13.70;99.90;;;;;;5038767;28;20106;-74
2022/05/13 06:34:43;;;;;;;11.23;3.05;;;13.70;99.90;;;;;;5040911;28;20037;-73
2022/05/13 06:37:08;;;;;;;9.27;2.30;;;13.80;99.90;;;;;;5029376;28;20092;-74
2022/05/13 06:39:34;;;;;;;14.52;2.22;;;13.90;99.90;;;;;;5026908;28;20041;-76
2022/05/13 06:41:59;;;;;;;10.57;2.60;;;13.90;99.90;;;;;;5022147;28;20420;-76
2022/05/13 06:44:28;;;;;;;11.07;2.25;;;14.00;99.90;;;;;;5025088;28;20485;-76
2022/05/13 06:46:54;;;;;;;9.52;2.40;;;14.10;99.90;;;;;;5029460;28;20045;-76
2022/05/13 06:49:19;;;;;;;9.57;2.55;;;14.20;99.90;;;;;;5025904;28;20053;-76
2022/05/13 06:51:45;;;;;;;8.43;2.80;;;14.20;99.90;;;;;;5019651;28;20049;-75
2022/05/13 06:54:14;;;;;;;9.88;2.55;;;14.30;99.90;;;;;;5026110;28;20057;-75
2022/05/13 06:56:43;;;;;;;9.85;2.53;;;14.40;99.90;;;;;;5027479;28;20537;-76
2022/05/13 06:59:10;;;;;;;10.30;2.38;;;14.50;99.90;;;;;;5031650;28;20647;-76
2022/05/13 07:01:38;;;;;;;11.48;2.03;;;14.40;99.90;;;;;;5045718;28;20045;-76
2022/05/13 07:04:04;;;;;;;6.40;2.08;;;14.50;99.90;;;;;;5028789;28;20042;-76
2022/05/13 07:06:30;;;;;;;9.32;2.05;;;14.50;99.90;;;;;;5026772;28;20135;-76
2022/05/13 07:08:56;;;;;;;12.00;2.15;;;14.50;99.90;;;;;;5028233;28;20053;-76
2022/05/13 07:11:22;;;;;;;8.00;2.00;;;14.60;99.90;;;;;;5028914;28;20049;-75
2022/05/13 07:13:52;;;;;;;10.07;2.00;;;14.60;99.90;;;;;;5027287;28;20045;-74
2022/05/13 07:16:20;;;;;;;11.65;2.10;;;14.60;99.90;;;;;;5027519;28;20382;-75
2022/05/13 07:18:47;;;;;;;13.43;2.38;;;14.70;99.90;;;;;;5021960;28;20068;-74
2022/05/13 07:21:14;;;;;;;10.95;1.75;;;14.70;99.90;;;;;;5023845;28;20135;-74
2022/05/13 07:23:39;;;;;;;7.15;1.70;;;14.70;99.90;;;;;;5021254;28;20057;-74
2022/05/13 07:26:05;;;;;;;13.00;1.80;;;14.70;99.90;;;;;;5026118;28;20082;-74
2022/05/13 07:28:31;;;;;;;7.63;1.70;;;14.70;99.90;;;;;;5028227;28;20488;-75
2022/05/13 07:30:57;;;;;;;8.57;1.60;;;14.70;99.90;;;;;;5025171;28;20052;-74
2022/05/13 07:33:24;;;;;;;6.55;1.60;;;14.70;99.90;;;;;;5026220;28;20192;-74
2022/05/13 07:35:50;;;;;;;8.57;1.40;;;14.70;99.90;;;;;;5051475;28;20052;-74
2022/05/13 07:38:18;;;;;;;7.68;1.70;;;15.00;99.90;;;;;;5025986;28;20045;-74
2022/05/13 07:43:31;;;;;;;7.35;1.55;;;15.20;99.90;;;;;;5023416;28;20073;-74
2022/05/13 07:45:56;;;;;;;7.25;1.60;;;15.20;99.90;;;;;;5028338;28;20835;-74
2022/05/13 07:48:22;;;;;;;6.90;1.75;;;15.00;99.90;;;;;;5030319;28;20132;-74
2022/05/13 07:50:50;;;;;;;9.70;1.90;;;14.80;99.90;;;;;;5025754;28;20037;-74
2022/05/13 07:53:15;;;;;;;6.57;1.50;;;14.80;99.90;;;;;;5030287;28;20641;-74
2022/05/13 07:55:41;;;;;;;7.93;1.58;;;15.00;99.90;;;;;;5029001;28;20128;-74
2022/05/13 07:58:06;;;;;;;6.38;1.17;;;15.20;99.90;;;;;;5027449;28;20041;-74
2022/05/13 08:00:32;;;;;;;8.48;1.45;;;15.40;99.90;;;;;;5025584;28;20135;-74
2022/05/13 08:03:12;;;;;;;6.88;1.70;;;15.60;99.90;;;;;;5025132;28;20114;-74
2022/05/13 08:05:50;;;;;;;8.57;1.70;;;15.70;99.90;;;;;;5051743;28;20487;-74
2022/05/13 08:08:22;;;;;;;9.93;2.17;;;15.70;99.90;;;;;;5027208;28;20045;-75
2022/05/13 08:10:52;;;;;;;7.30;2.15;;;15.90;99.90;;;;;;5025558;28;20125;-75
2022/05/13 08:13:19;;;;;;;4.78;1.33;;;16.00;99.90;;;;;;5022199;28;20042;-73
2022/05/13 08:15:46;;;;;;;6.72;1.45;;;16.10;99.90;;;;;;5024207;28;20909;-75
2022/05/13 08:18:12;;;;;;;5.60;1.10;;;16.20;99.90;;;;;;5022691;28;20033;-74
2022/05/13 08:20:40;;;;;;;12.23;1.65;;;16.20;99.90;;;;;;5024539;28;20095;-75
2022/05/13 08:23:06;;;;;;;6.10;1.05;;;16.20;99.90;;;;;;5017319;28;20507;-74
2022/05/13 08:25:32;;;;;;;6.65;1.30;;;16.20;99.90;;;;;;5025577;28;20060;-74
2022/05/13 08:27:58;;;;;;;14.20;1.60;;;16.10;99.90;;;;;;5022113;28;20045;-73
2022/05/13 08:30:24;;;;;;;6.68;1.10;;;16.10;99.90;;;;;;5022358;28;20049;-74
2022/05/13 08:32:51;;;;;;;9.27;1.20;;;15.90;99.90;;;;;;5023952;28;20378;-72
2022/05/13 08:35:19;;;;;;;5.68;1.48;;;15.90;99.90;;;;;;5022261;28;20049;-73
2022/05/13 08:37:55;;;;;;;6.10;1.15;;;15.70;99.90;;;;;;5024817;28;20089;-74
2022/05/13 08:40:55;;;;;;;7.10;1.52;;;15.60;99.90;;;;;;5025126;28;20045;-74
2022/05/13 08:43:45;;;;;;;7.22;1.30;;;15.50;99.90;;;;;;5023232;28;20042;-73
2022/05/13 08:46:18;;;;;;;9.13;1.92;;;15.70;99.90;;;;;;5055164;28;20057;-74
2022/05/13 08:48:54;;;;;;;8.38;1.60;;;15.60;99.90;;;;;;5025279;28;20514;-73
2022/05/13 08:51:49;;;;;;;5.30;1.40;;;15.90;99.90;;;;;;5021057;28;20050;-74
2022/05/13 08:54:21;;;;;;;8.83;1.70;;;15.80;99.90;;;;;;5029358;28;20041;-74
2022/05/13 08:56:57;;;;;;;9.35;1.40;;;16.00;99.90;;;;;;5025666;28;20087;-73
2022/05/13 08:59:43;;;;;;;7.00;1.45;;;16.10;99.90;;;;;;5041809;28;20719;-74
2022/05/13 09:02:22;;;;;;;8.60;1.20;;;16.10;99.90;;;;;;5024676;28;20128;-74
2022/05/13 09:05:05;;;;;;;4.75;1.00;;;16.00;99.90;;;;;;5025479;28;20048;-75
2022/05/13 09:07:30;;;;;;;6.55;1.20;;;16.00;99.90;;;;;;5019426;28;20050;-74
2022/05/13 09:10:06;;;;;;;8.13;1.40;;;16.10;99.90;;;;;;5023273;28;20501;-74
2022/05/13 09:12:48;;;;;;;7.28;1.40;;;16.30;99.90;;;;;;5058354;28;20053;-75
2022/05/13 09:15:25;;;;;;;9.02;1.55;;;16.50;99.90;;;;;;5025833;28;20042;-74
2022/05/13 09:18:19;;;;;;;7.55;2.03;;;16.80;99.90;;;;;;5025057;28;20058;-74
2022/05/13 09:20:59;;;;;;;5.75;1.20;;;17.00;99.90;;;;;;5025225;28;20045;-75
2022/05/13 09:23:26;;;;;;;6.10;1.10;;;17.10;99.90;;;;;;5019370;28;20057;-74
2022/05/13 09:25:58;;;;;;;4.47;1.15;;;17.20;99.90;;;;;;5024547;28;20143;-74
2022/05/13 09:28:26;;;;;;;8.45;1.13;;;17.10;99.90;;;;;;5027992;28;20134;-73
2022/05/13 09:30:59;;;;;;;8.98;1.50;;;16.90;99.90;;;;;;5034387;28;20056;-75
2022/05/13 09:33:46;;;;;;;6.00;1.30;;;16.80;99.90;;;;;;5023689;28;20591;-74
2022/05/13 09:36:21;;;;;;;4.80;1.38;;;16.60;99.90;;;;;;5022783;28;20064;-74
2022/05/13 09:38:49;;;;;;;6.88;1.55;;;16.60;99.90;;;;;;5043009;28;20194;-76
2022/05/13 09:41:31;;;;;;;7.00;1.30;;;16.60;99.90;;;;;;5036736;28;20072;-76
2022/05/13 09:44:03;;;;;;;5.97;1.40;;;16.50;99.90;;;;;;5022824;28;20516;-77
2022/05/13 09:46:47;;;;;;;5.57;1.30;;;16.50;99.90;;;;;;5029664;28;20045;-76
2022/05/13 09:49:33;;;;;;;6.97;1.38;;;16.30;99.90;;;;;;5031947;28;20139;-76
2022/05/13 09:52:11;;;;;;;6.78;1.20;;;16.20;99.90;;;;;;5046707;28;20512;-77
2022/05/13 09:54:42;;;;;;;7.22;1.27;;;16.20;99.90;;;;;;5046480;28;20106;-76
2022/05/13 09:57:12;;;;;;;7.43;1.45;;;16.10;99.90;;;;;;5049310;28;20138;-76
2022/05/13 09:59:56;;;;;;;8.73;1.15;;;16.00;99.90;;;;;;5018916;28;20508;-77
2022/05/13 10:02:36;;;;;;;9.52;1.20;;;15.90;99.90;;;;;;5027823;28;20046;-77
2022/05/13 10:05:11;;;;;;;6.05;1.00;;;15.80;99.90;;;;;;5012181;28;20046;-76
2022/05/13 10:08:00;;;;;;;4.10;1.10;;;15.70;99.90;;;;;;5013416;28;20414;-77
2022/05/13 10:16:18;;;;;;;6.25;1.13;;;15.90;99.90;;;;;;5032342;28;20077;-75
2022/05/13 10:19:08;;;;;;;3.40;0.90;;;16.20;99.90;;;;;;5017114;28;20416;-74
2022/05/13 10:21:56;;;;;;;4.97;1.20;;;16.40;99.90;;;;;;5033206;28;20061;-74
2022/05/13 10:24:47;;;;;;;6.68;1.17;;;16.70;99.90;;;;;;5006521;28;20053;-74
2022/05/13 10:27:35;;;;;;;5.80;1.30;;;17.00;99.90;;;;;;5031901;28;20083;-74
2022/05/13 10:30:21;;;;;;;4.07;1.08;;;17.30;99.90;;;;;;5023460;28;20050;-72
2022/05/13 10:33:01;;;;;;;7.03;1.27;;;17.40;99.90;;;;;;5060095;28;20045;-74
2022/05/13 10:35:50;;;;;;;2.80;1.02;;;17.50;99.90;;;;;;5030863;28;20046;-73
2022/05/13 10:38:34;;;;;;;6.50;1.10;;;17.60;99.90;;;;;;5025418;28;20041;-74
2022/05/13 10:41:19;;;;;;;2.88;0.88;;;17.60;99.90;;;;;;5019549;28;20045;-74
2022/05/13 10:44:10;;;;;;;3.50;0.75;;;17.80;99.30;;;;;;5026477;28;20033;-73
2022/05/13 10:46:48;;;;;;;8.32;1.58;;;17.80;99.00;;;;;;5026042;28;20060;-74
2022/05/13 10:49:14;;;;;;;8.88;1.50;;;17.90;98.30;;;;;;5027906;28;20045;-72
2022/05/13 10:52:05;;;;;;;5.63;1.40;;;18.00;98.10;;;;;;5038862;28;20041;-73
2022/05/13 10:54:47;;;;;;;3.72;0.90;;;18.20;98.00;;;;;;5029705;28;20045;-73
2022/05/13 10:57:40;;;;;;;4.03;1.00;;;18.10;97.80;;;;;;5028055;28;20041;-74
2022/05/13 11:00:12;;;;;;;6.07;1.08;;;18.10;97.70;;;;;;5029963;28;20049;-73
2022/05/13 11:03:14;;;;;;;3.80;0.70;;;18.10;97.60;;;;;;5024946;28;20120;-74
2022/05/13 11:05:59;;;;;;;5.00;1.02;;;18.10;97.40;;;;;;5028906;28;20045;-75
2022/05/13 11:08:49;;;;;;;3.80;0.80;;;17.90;97.30;;;;;;5019707;28;20555;-75
2022/05/13 11:11:41;;;;;;;4.68;1.08;;;17.80;97.50;;;;;;5021820;28;20128;-74
2022/05/13 11:14:22;;;;;;;6.07;1.60;;;17.70;98.40;;;;;;5037440;28;20084;-74
2022/05/13 11:16:59;;;;;;;7.57;1.40;;;17.60;98.70;;;;;;5026905;28;20045;-75
2022/05/13 11:19:43;;;;;;;5.68;1.15;;;17.60;98.60;;;;;;5020975;28;20539;-74
2022/05/13 11:22:23;;;;;;;7.97;0.98;;;17.60;98.60;;;;;;5021955;28;20050;-75
2022/05/13 11:27:57;;;;;;;10.43;1.48;;;17.30;99.10;;;;;;5027500;28;20053;-75
2022/05/13 11:30:49;;;;;;;5.88;1.92;;;17.40;99.40;;;;;;5026040;28;20045;-75
2022/05/13 11:33:38;;;;;;;6.60;1.50;;;17.60;99.30;;;;;;5054203;28;20056;-75
2022/05/13 11:36:10;;;;;;;7.20;1.30;;;17.90;98.70;;;;;;5014000;28;20064;-74
2022/05/13 11:38:54;;;;;;;6.20;1.38;;;18.10;98.70;;;;;;5018036;28;20048;-75
2022/05/13 11:41:23;;;;;;;8.25;1.20;;;18.10;98.10;;;;;;5026805;28;20078;-73
2022/05/13 11:43:59;;;;;;;6.03;1.08;;;18.10;97.20;;;;;;5023919;28;20448;-76
2022/05/13 11:46:52;;;;;;;3.22;1.35;;;18.20;97.70;;;;;;5023541;28;20041;-75
2022/05/13 11:49:23;;;;;;;6.38;1.23;;;18.30;97.10;;;;;;5021230;28;20619;-75
2022/05/13 11:51:54;;;;;;;6.47;1.52;;;18.50;97.60;;;;;;5042298;28;20080;-76
2022/05/13 11:54:26;;;;;;;7.47;1.75;;;18.60;97.60;;;;;;5027651;28;20053;-75
2022/05/13 11:57:18;;;;;;;6.75;1.42;;;18.50;97.10;;;;;;5028108;28;20042;-75
2022/05/13 11:59:48;;;;;;;7.70;1.75;;;18.40;96.20;;;;;;5020714;28;20088;-76
2022/05/13 12:02:44;;;;;;;7.55;1.70;;;18.30;97.10;;;;;;5028106;28;20309;-76
2022/05/13 12:05:19;;;;;;;5.97;1.40;;;18.30;96.80;;;;;;5019582;28;20049;-77
2022/05/13 12:08:02;;;;;;;5.43;1.38;;;18.30;97.00;;;;;;5042649;28;20061;-76
2022/05/13 12:10:48;;;;;;;7.95;1.65;;;18.40;96.90;;;;;;5027601;28;20091;-76
2022/05/13 12:13:35;;;;;;;5.05;1.23;;;18.40;97.10;;;;;;5024083;28;20176;-76
2022/05/13 12:16:40;;;;;;;7.47;1.63;;;18.40;96.50;;;;;;5024525;28;20147;-79
2022/05/13 12:19:26;;;;;;;5.05;1.15;;;18.30;96.70;;;;;;5024215;28;20046;-79
2022/05/13 12:22:10;;;;;;;7.45;1.42;;;18.10;96.70;;;;;;5042399;28;20048;-78
2022/05/13 12:25:04;;;;;;;7.40;1.90;;;18.10;96.80;;;;;;5029825;28;20066;-77
2022/05/13 12:27:34;;;;;;;3.90;1.10;;;18.20;97.00;;;;;;5010651;28;20492;-77
2022/05/13 12:30:24;;;;;;;8.38;1.30;;;18.20;96.50;;;;;;5028382;28;20057;-77
2022/05/13 12:32:50;;;;;;;6.90;0.98;;;18.20;96.30;;;;;;5009881;28;20124;-76
2022/05/13 12:38:23;;;;;;;6.90;1.00;;;18.40;95.50;;;;;;5025096;28;20057;-76
2022/05/13 12:41:10;;;;;;;7.78;1.10;;;18.60;95.00;;;;;;5023355;28;20488;-77
2022/05/13 12:43:53;;;;;;;6.03;1.05;;;18.60;95.00;;;;;;5032103;28;20073;-77
2022/05/13 12:46:21;;;;;;;4.78;0.90;;;18.70;94.60;;;;;;5024617;28;20071;-73
2022/05/13 12:49:04;;;;;;;4.97;1.00;;;18.70;94.20;;;;;;5022208;28;20087;-73
2022/05/13 12:52:02;;;;;;;4.78;1.10;;;18.60;94.40;;;;;;5028677;28;20425;-72
2022/05/13 12:54:32;;;;;;;4.60;1.05;;;18.50;94.40;;;;;;5028579;28;20132;-72
2022/05/13 12:57:31;;;;;;;9.38;1.13;;;18.50;94.30;;;;;;5028423;28;20069;-72
2022/05/13 12:59:58;;;;;;;4.93;1.17;;;18.50;94.20;;;;;;5023865;28;20049;-72
2022/05/13 13:02:27;;;;;;;11.95;1.10;;;18.50;95.30;;;;;;5028721;28;20072;-72
2022/05/13 13:04:57;;;;;;;7.25;1.00;;;18.60;94.70;;;;;;5031356;28;20361;-74
2022/05/13 13:07:27;;;;;;;7.05;1.45;;;18.60;94.40;;;;;;5023890;28;20083;-74
2022/05/13 13:09:53;;;;;;;8.13;1.35;;;18.50;93.90;;;;;;5029972;28;20057;-74
2022/05/13 13:12:30;;;;;;;7.03;1.08;;;18.40;94.20;;;;;;5027282;28;20084;-74
2022/05/13 13:15:26;;;;;;;4.93;1.27;;;18.30;94.30;;;;;;5027123;28;20042;-74
2022/05/13 13:17:59;;;;;;;6.43;1.50;;;18.30;94.60;;;;;;5027206;28;20057;-74
2022/05/13 13:20:30;;;;;;;6.97;1.60;;;18.40;95.00;;;;;;5028981;28;20049;-74
2022/05/13 13:23:06;;;;;;;8.15;1.60;;;18.40;95.60;;;;;;5022293;28;20124;-74
2022/05/13 13:25:46;;;;;;;4.63;1.52;;;18.50;95.40;;;;;;5028580;28;20049;-74
2022/05/13 13:28:19;;;;;;;6.72;1.20;;;18.60;95.10;;;;;;5061488;28;20546;-74
2022/05/13 13:30:55;;;;;;;7.95;1.40;;;18.60;95.00;;;;;;5028745;28;20049;-73
2022/05/13 13:33:24;;;;;;;8.80;1.48;;;18.60;94.80;;;;;;5028972;28;20127;-73
2022/05/13 13:35:50;;;;;;;10.45;1.77;;;18.50;95.20;;;;;;5022374;28;20041;-74